Time;durP1;ratioP1;P1;durP2;ratioP2;P2;SDS_P1;SDS_P2;PMS_P1;PMS_P2;Temp;Humidity;BMP_temperature;BMP_pressure;BME280_temperature;BME280_humidity;BME280_pressure;Samples;Min_cycle;Max_cycle;Signal;HPM_P1;HPM_P2
2023/12/05 00:00:09;;;;;;;18.20;8.40;;;;;;;2.03;56.53;101740.27;106861;1253;61344;-81
2023/12/05 00:02:39;;;;;;;14.60;8.00;;;;;;;2.04;56.89;101735.89;106458;1257;61151;-80
2023/12/05 00:05:19;;;;;;;13.90;7.00;;;;;;;2.20;56.66;101736.25;106436;1260;73812;-80
2023/12/05 00:07:47;;;;;;;15.50;7.80;;;;;;;2.37;56.33;101735.75;106279;1259;68473;-81
2023/12/05 00:10:27;;;;;;;15.70;7.70;;;;;;;2.42;55.99;101736.55;106701;1252;71603;-80
2023/12/05 00:12:54;;;;;;;19.70;8.20;;;;;;;2.46;56.03;101735.23;106480;1255;61747;-80
2023/12/05 00:15:34;;;;;;;21.50;7.80;;;;;;;2.50;55.79;101738.36;106521;1255;61145;-80
2023/12/05 00:18:02;;;;;;;15.40;7.30;;;;;;;2.32;56.21;101741.47;106570;1255;73333;-81
2023/12/05 00:20:42;;;;;;;16.60;8.40;;;;;;;2.43;56.05;101738.62;106660;1258;67243;-81
2023/12/05 00:23:22;;;;;;;14.40;6.90;;;;;;;2.41;55.54;101737.03;106429;1254;72435;-79
2023/12/05 00:26:02;;;;;;;17.50;8.30;;;;;;;2.21;55.84;101743.69;106247;1259;61341;-79
2023/12/05 00:28:42;;;;;;;16.20;7.50;;;;;;;2.21;55.73;101747.29;106733;1258;61267;-80
2023/12/05 00:31:21;;;;;;;17.60;7.70;;;;;;;2.22;55.58;101748.81;106597;1253;73378;-81
2023/12/05 00:34:02;;;;;;;16.00;7.70;;;;;;;2.25;55.50;101746.10;106525;1257;68902;-79
2023/12/05 00:36:42;;;;;;;17.70;7.80;;;;;;;2.22;55.37;101745.44;106353;1254;72679;-79
2023/12/05 00:39:22;;;;;;;16.70;8.70;;;;;;;2.12;55.53;101742.35;106334;1260;64024;-78
2023/12/05 00:42:01;;;;;;;16.90;8.40;;;;;;;2.01;55.68;101740.65;106596;1252;61291;-79
2023/12/05 00:44:39;;;;;;;15.50;7.40;;;;;;;1.99;56.01;101744.48;106515;1254;72868;-79
2023/12/05 00:47:13;;;;;;;16.90;7.30;;;;;;;1.99;56.05;101745.36;106570;1252;67140;-80
2023/12/05 00:49:47;;;;;;;18.40;7.80;;;;;;;1.95;56.29;101751.96;106391;1258;72733;-79
2023/12/05 00:52:21;;;;;;;18.00;8.80;;;;;;;1.99;55.97;101751.85;106583;1256;61356;-79
2023/12/05 00:54:54;;;;;;;18.80;8.30;;;;;;;2.03;55.76;101752.63;106574;1254;61453;-79
2023/12/05 00:57:28;;;;;;;15.00;7.10;;;;;;;2.04;55.73;101750.56;106418;1258;74752;-79
2023/12/05 01:00:04;;;;;;;18.00;8.10;;;;;;;1.71;56.45;101754.99;106429;1254;67281;-79
2023/12/05 01:02:38;;;;;;;19.50;7.50;;;;;;;1.75;56.30;101752.98;106502;1254;72661;-79
2023/12/05 01:05:12;;;;;;;21.30;9.50;;;;;;;1.82;56.01;101751.27;106638;1254;61630;-79
2023/12/05 01:07:46;;;;;;;19.70;8.30;;;;;;;1.83;55.84;101748.09;106686;1254;61419;-80
2023/12/05 01:10:20;;;;;;;16.10;7.50;;;;;;;1.83;55.88;101745.94;106505;1254;74378;-80
2023/12/05 01:12:54;;;;;;;16.70;7.90;;;;;;;1.91;55.68;101746.15;106457;1257;67141;-79
2023/12/05 01:15:28;;;;;;;16.40;7.00;;;;;;;1.93;55.23;101746.64;106273;1255;71767;-80
2023/12/05 01:18:08;;;;;;;15.50;7.30;;;;;;;1.92;55.41;101748.40;106459;1253;61222;-80
2023/12/05 01:20:42;;;;;;;16.30;8.20;;;;;;;1.95;55.14;101745.94;106502;1257;61256;-80
2023/12/05 01:23:16;;;;;;;15.80;8.00;;;;;;;1.74;55.23;101745.42;106623;1258;74602;-79
2023/12/05 01:25:49;;;;;;;16.20;8.60;;;;;;;1.82;55.02;101744.60;106621;1254;67397;-82
2023/12/05 01:28:17;;;;;;;14.20;7.30;;;;;;;1.91;54.89;101745.27;106541;1254;72653;-79
2023/12/05 01:30:51;;;;;;;17.40;8.00;;;;;;;1.91;54.40;101744.00;106431;1254;61712;-79
2023/12/05 01:33:24;;;;;;;18.40;8.00;;;;;;;1.76;54.89;101742.87;106724;1254;61207;-80
2023/12/05 01:35:52;;;;;;;17.70;8.90;;;;;;;1.84;54.61;101742.39;106422;1257;74634;-80
2023/12/05 01:38:20;;;;;;;15.70;7.40;;;;;;;1.79;54.67;101748.66;106342;1257;67115;-79
2023/12/05 01:40:53;;;;;;;17.00;7.40;;;;;;;1.66;55.03;101748.67;106318;1254;71477;-79
2023/12/05 01:43:27;;;;;;;16.40;7.70;;;;;;;1.49;55.69;101751.58;106577;1254;61262;-80
2023/12/05 01:45:55;;;;;;;18.30;8.20;;;;;;;1.37;55.94;101752.53;106506;1254;61257;-79
2023/12/05 01:48:23;;;;;;;16.10;7.60;;;;;;;1.33;56.19;101754.19;106596;1257;74637;-80
2023/12/05 01:51:00;;;;;;;18.70;8.30;;;;;;;1.29;56.04;101756.66;106469;1257;67383;-78
2023/12/05 01:53:40;;;;;;;17.50;8.00;;;;;;;1.17;56.36;101761.67;106401;1254;73103;-80
2023/12/05 01:56:09;;;;;;;16.10;7.30;;;;;;;1.06;56.48;101765.52;106765;1254;61178;-78
2023/12/05 01:58:44;;;;;;;17.50;8.40;;;;;;;1.05;56.47;101759.84;106305;1254;61237;-79
2023/12/05 02:01:19;;;;;;;21.90;8.00;;;;;;;1.01;56.03;101760.55;106387;1254;74572;-79
2023/12/05 02:03:53;;;;;;;19.80;9.00;;;;;;;1.03;55.69;101759.93;106521;1258;67106;-80
2023/12/05 02:06:28;;;;;;;19.70;8.30;;;;;;;1.06;55.57;101766.02;107046;1254;72727;-80
2023/12/05 02:09:03;;;;;;;16.40;8.30;;;;;;;0.96;55.33;101767.48;106547;1257;61288;-80
2023/12/05 02:11:36;;;;;;;15.60;7.60;;;;;;;0.90;55.34;101770.73;106230;1253;61190;-80
2023/12/05 02:14:10;;;;;;;19.10;7.90;;;;;;;0.71;55.66;101767.55;106389;1253;73431;-79
2023/12/05 02:16:49;;;;;;;20.70;8.20;;;;;;;0.58;55.95;101767.98;106537;1254;68339;-80
2023/12/05 02:19:42;;;;;;;23.50;9.80;;;;;;;0.52;55.98;101764.58;106472;1257;72769;-80
2023/12/05 02:22:58;;;;;;;25.60;9.60;;;;;;;0.52;55.63;101764.11;106295;1259;61359;-79
2023/12/05 02:26:03;;;;;;;16.60;8.10;;;;;;;0.25;56.36;101768.89;106147;1260;61678;-80
2023/12/05 02:28:43;;;;;;;17.00;7.80;;;;;;;0.14;56.90;101773.21;106361;1254;74639;-79
2023/12/05 02:31:17;;;;;;;24.40;9.30;;;;;;;0.05;57.13;101770.70;106208;1259;66657;-79
2023/12/05 02:33:51;;;;;;;21.90;9.00;;;;;;;0.04;57.37;101772.52;106446;1254;72647;-80
2023/12/05 02:36:32;;;;;;;17.80;8.10;;;;;;;-0.15;57.94;101773.96;106548;1257;61671;-79
2023/12/05 02:39:41;;;;;;;19.10;8.40;;;;;;;-0.29;58.97;101777.20;106835;1253;61170;-80
2023/12/05 02:42:15;;;;;;;21.00;8.30;;;;;;;-0.27;59.02;101780.58;106418;1257;74656;-80
2023/12/05 02:44:51;;;;;;;18.60;8.30;;;;;;;-0.37;59.14;101780.16;106415;1253;67360;-79
2023/12/05 02:47:31;;;;;;;24.30;10.30;;;;;;;-0.46;59.49;101779.63;106427;1254;72690;-80
2023/12/05 02:50:11;;;;;;;28.70;11.90;;;;;;;-0.41;59.05;101776.45;106581;1253;62006;-79
2023/12/05 02:52:45;;;;;;;22.00;9.70;;;;;;;-0.45;59.11;101780.29;106347;1254;61376;-79
2023/12/05 02:55:19;;;;;;;22.60;8.80;;;;;;;-0.50;58.89;101773.10;106494;1254;73490;-78
2023/12/05 02:57:56;;;;;;;22.10;9.90;;;;;;;-0.56;58.65;101774.86;106397;1254;68891;-80
2023/12/05 03:00:30;;;;;;;27.10;11.30;;;;;;;-0.57;58.67;101775.58;106677;1254;72677;-80
2023/12/05 03:03:03;;;;;;;21.30;9.30;;;;;;;-0.60;58.50;101778.91;106660;1254;61840;-80
2023/12/05 03:05:32;;;;;;;23.10;10.10;;;;;;;-0.64;58.65;101778.48;106339;1253;61384;-79
2023/12/05 03:08:06;;;;;;;16.90;8.30;;;;;;;-0.59;58.37;101775.59;106382;1256;75126;-79
2023/12/05 03:10:46;;;;;;;15.90;7.70;;;;;;;-0.55;58.04;101780.21;106234;1254;67213;-79
2023/12/05 03:13:32;;;;;;;17.40;7.60;;;;;;;-0.56;57.75;101780.59;106217;1254;72166;-79
2023/12/05 03:16:06;;;;;;;18.00;8.30;;;;;;;-0.48;57.27;101787.02;106300;1257;61244;-79
2023/12/05 03:18:39;;;;;;;21.40;8.20;;;;;;;-0.58;57.32;101783.36;106285;1253;61241;-80
2023/12/05 03:21:14;;;;;;;20.00;8.70;;;;;;;-0.59;57.33;101786.48;106447;1253;74661;-79
2023/12/05 03:23:48;;;;;;;20.90;8.20;;;;;;;-0.73;57.62;101786.84;106553;1253;69054;-81
2023/12/05 03:26:25;;;;;;;16.30;8.10;;;;;;;-0.72;57.67;101788.92;106462;1254;72663;-79
2023/12/05 03:29:06;;;;;;;18.00;7.50;;;;;;;-0.69;57.92;101793.73;106593;1257;61166;-79
2023/12/05 03:31:46;;;;;;;15.60;6.50;;;;;;;-0.75;57.85;101789.23;106552;1255;60468;-79
2023/12/05 03:34:19;;;;;;;17.70;8.80;;;;;;;-0.97;58.81;101783.14;106698;1257;74652;-79
2023/12/05 03:36:53;;;;;;;20.80;8.30;;;;;;;-0.95;59.27;101788.45;106582;1253;67077;-78
2023/12/05 03:39:33;;;;;;;18.60;8.40;;;;;;;-0.84;58.80;101786.99;106671;1252;71600;-80
2023/12/05 03:42:13;;;;;;;16.60;7.60;;;;;;;-1.06;59.28;101793.25;106693;1257;61286;-80
2023/12/05 03:44:47;;;;;;;18.40;8.60;;;;;;;-1.03;59.08;101798.08;106564;1254;60004;-80
2023/12/05 03:47:20;;;;;;;17.50;7.50;;;;;;;-1.05;59.17;101810.65;106621;1253;73491;-80
2023/12/05 03:50:00;;;;;;;21.30;8.90;;;;;;;-1.01;59.33;101818.27;106390;1253;68417;-78
2023/12/05 03:52:40;;;;;;;31.60;13.40;;;;;;;-1.01;59.40;101824.84;106610;1259;71443;-80
2023/12/05 03:55:14;;;;;;;49.30;20.10;;;;;;;-0.92;59.29;101832.73;106667;1253;61197;-79
2023/12/05 03:57:48;;;;;;;40.30;16.10;;;;;;;-0.95;59.63;101832.90;106460;1254;61304;-79
2023/12/05 04:00:21;;;;;;;37.60;14.80;;;;;;;-0.85;59.56;101825.92;106401;1254;74693;-80
2023/12/05 04:02:55;;;;;;;31.00;12.90;;;;;;;-0.73;59.45;101820.20;106528;1255;68447;-80
2023/12/05 04:05:30;;;;;;;31.30;13.20;;;;;;;-0.66;59.22;101820.28;106558;1254;72466;-80
2023/12/05 04:08:03;;;;;;;34.20;13.80;;;;;;;-0.81;59.52;101814.10;106788;1257;61305;-79
2023/12/05 04:10:38;;;;;;;25.10;10.00;;;;;;;-0.90;60.37;101820.02;106514;1253;61183;-79
2023/12/05 04:13:18;;;;;;;24.00;10.70;;;;;;;-0.82;60.32;101824.94;106722;1254;73468;-79
2023/12/05 04:16:02;;;;;;;29.20;12.00;;;;;;;-0.89;60.76;101818.11;106911;1253;68715;-80
2023/12/05 04:18:30;;;;;;;30.30;13.70;;;;;;;-0.86;61.00;101815.73;106824;1257;71490;-79
2023/12/05 04:21:04;;;;;;;20.40;9.60;;;;;;;-0.90;61.31;101814.69;106865;1254;61283;-80
2023/12/05 04:23:44;;;;;;;17.60;8.10;;;;;;;-0.82;61.21;101808.77;106892;1257;61296;-80
2023/12/05 04:26:19;;;;;;;25.70;11.30;;;;;;;-0.80;61.12;101810.67;107036;1254;73481;-78
2023/12/05 04:28:52;;;;;;;27.20;11.70;;;;;;;-0.77;61.06;101810.98;106850;1253;68395;-80
2023/12/05 20:29:58;;;;;;;33.50;18.30;;;;;;;4.60;70.07;101613.11;106482;1256;74960;-80
2023/12/05 20:32:32;;;;;;;53.40;23.80;;;;;;;4.69;69.26;101611.26;106398;1257;68568;-81
2023/12/05 20:35:12;;;;;;;59.30;27.00;;;;;;;4.73;68.82;101617.48;106265;1255;74997;-81
2023/12/05 20:37:54;;;;;;;69.70;28.10;;;;;;;4.71;68.61;101619.48;106524;1255;62766;-80
2023/12/05 20:40:34;;;;;;;66.40;29.60;;;;;;;4.69;68.78;101625.38;106300;1254;61968;-81
2023/12/05 20:43:14;;;;;;;62.80;29.10;;;;;;;4.64;68.90;101624.10;106639;1252;76824;-81
2023/12/05 20:45:54;;;;;;;59.30;28.00;;;;;;;4.71;68.43;101627.20;106368;1254;69275;-81
2023/12/05 20:48:34;;;;;;;58.50;27.30;;;;;;;4.71;68.02;101628.83;106346;1254;72640;-81
2023/12/05 20:51:14;;;;;;;59.30;25.90;;;;;;;4.66;68.39;101630.42;106429;1257;61439;-81
2023/12/05 20:53:54;;;;;;;61.00;25.30;;;;;;;4.78;67.63;101629.77;106532;1254;61657;-82
2023/12/05 20:56:33;;;;;;;57.30;24.40;;;;;;;4.73;67.86;101636.04;106417;1255;76909;-82
2023/12/05 20:59:13;;;;;;;54.30;25.00;;;;;;;4.71;67.94;101637.50;106496;1257;67570;-82
2023/12/05 21:01:53;;;;;;;60.40;28.80;;;;;;;4.67;68.26;101641.00;106273;1255;74746;-80
2023/12/05 21:04:33;;;;;;;51.20;24.90;;;;;;;4.61;68.51;101644.10;106526;1261;61220;-80
2023/12/05 21:07:13;;;;;;;53.20;24.70;;;;;;;4.67;68.11;101642.41;106531;1257;62349;-80
2023/12/05 21:09:54;;;;;;;55.50;25.60;;;;;;;4.72;67.39;101644.58;106562;1254;72901;-78
2023/12/05 21:12:34;;;;;;;51.10;25.00;;;;;;;4.64;67.77;101646.91;106317;1260;68049;-79
2023/12/05 21:15:14;;;;;;;56.70;26.60;;;;;;;4.66;67.59;101647.05;106482;1257;71410;-79
2023/12/05 21:17:54;;;;;;;55.70;25.80;;;;;;;4.58;67.91;101646.05;106519;1252;61302;-79
2023/12/05 21:20:33;;;;;;;49.20;24.70;;;;;;;4.56;68.21;101651.17;106715;1253;61208;-79
2023/12/05 21:23:13;;;;;;;50.90;23.60;;;;;;;4.54;68.10;101651.27;106854;1255;73366;-80
2023/12/05 21:25:53;;;;;;;44.60;20.80;;;;;;;4.54;68.34;101656.86;106520;1258;68680;-80
2023/12/05 21:28:33;;;;;;;43.00;22.20;;;;;;;4.56;68.16;101655.97;106662;1254;72888;-80
2023/12/05 21:31:13;;;;;;;50.10;23.70;;;;;;;4.55;68.19;101654.39;106989;1254;61352;-80
2023/12/05 21:33:53;;;;;;;54.80;24.20;;;;;;;4.58;67.83;101657.10;106551;1252;61304;-80
2023/12/05 21:36:33;;;;;;;59.70;23.90;;;;;;;4.52;67.96;101658.60;106831;1254;74644;-81
2023/12/05 21:39:13;;;;;;;64.30;28.10;;;;;;;4.41;68.59;101661.35;106687;1254;68361;-80
2023/12/05 21:41:53;;;;;;;51.30;21.60;;;;;;;4.38;69.19;101664.98;106480;1254;72657;-80
2023/12/05 21:44:33;;;;;;;46.90;20.70;;;;;;;4.44;68.85;101667.11;106605;1257;61385;-80
2023/12/05 21:47:13;;;;;;;42.80;19.70;;;;;;;4.42;68.74;101665.30;106477;1257;61328;-80
2023/12/05 21:49:54;;;;;;;44.80;21.50;;;;;;;4.35;68.95;101658.14;106499;1256;73432;-80
2023/12/05 21:52:34;;;;;;;40.10;20.50;;;;;;;4.34;68.82;101655.60;106468;1252;68425;-80
2023/12/05 21:55:14;;;;;;;43.80;18.90;;;;;;;4.23;69.24;101653.66;106572;1254;70391;-81
2023/12/05 21:57:42;;;;;;;44.30;19.50;;;;;;;4.15;69.62;101653.23;106626;1254;61247;-81
2023/12/05 22:00:16;;;;;;;35.00;17.10;;;;;;;4.10;70.12;101654.85;106423;1257;61170;-80
2023/12/05 22:02:51;;;;;;;37.30;17.80;;;;;;;4.10;70.26;101650.18;106333;1254;76897;-80
2023/12/05 22:05:25;;;;;;;33.80;16.90;;;;;;;4.25;69.44;101646.12;106409;1254;68367;-80
2023/12/05 22:07:58;;;;;;;35.90;16.10;;;;;;;4.27;69.01;101643.83;106497;1254;72743;-81
2023/12/05 22:10:32;;;;;;;28.20;13.30;;;;;;;4.31;68.81;101641.16;106592;1253;61336;-80
2023/12/05 22:13:06;;;;;;;28.70;14.20;;;;;;;4.34;69.02;101639.95;106426;1253;61202;-80
2023/12/05 22:15:40;;;;;;;27.40;14.10;;;;;;;4.36;68.79;101645.79;106429;1254;73266;-80
2023/12/05 22:18:14;;;;;;;29.10;13.20;;;;;;;4.39;69.04;101642.70;106439;1257;67270;-80
2023/12/05 22:20:48;;;;;;;33.80;15.30;;;;;;;4.50;68.43;101636.23;106458;1254;72785;-81
2023/12/05 22:23:24;;;;;;;35.90;17.90;;;;;;;4.59;68.07;101635.17;106753;1253;61224;-81
2023/12/05 22:26:01;;;;;;;36.70;17.20;;;;;;;4.58;68.07;101635.55;106502;1257;61311;-81
2023/12/05 22:28:35;;;;;;;27.50;14.00;;;;;;;4.57;68.34;101638.73;106484;1254;74642;-80
2023/12/05 22:31:10;;;;;;;31.10;15.40;;;;;;;4.56;68.68;101628.77;106552;1255;67260;-81
2023/12/05 22:33:44;;;;;;;30.60;14.90;;;;;;;4.50;69.15;101628.28;106554;1252;72638;-80
2023/12/05 22:36:23;;;;;;;34.40;16.60;;;;;;;4.54;69.15;101624.40;106509;1253;61173;-80
2023/12/05 22:38:56;;;;;;;36.60;16.90;;;;;;;4.66;68.61;101624.34;106459;1254;61286;-81
2023/12/05 22:41:31;;;;;;;36.90;16.80;;;;;;;4.66;68.53;101618.38;106268;1258;74613;-81
2023/12/05 22:44:05;;;;;;;39.90;18.20;;;;;;;4.66;68.79;101615.52;106481;1254;68688;-81
2023/12/05 22:46:39;;;;;;;40.80;17.80;;;;;;;4.64;68.86;101616.34;106436;1257;72850;-80
2023/12/05 22:49:13;;;;;;;35.40;18.00;;;;;;;4.64;68.94;101613.06;106324;1253;61797;-80
2023/12/05 22:51:48;;;;;;;43.20;20.60;;;;;;;4.67;68.71;101612.21;106446;1253;61245;-80
2023/12/05 22:54:21;;;;;;;36.90;17.20;;;;;;;4.62;69.06;101607.85;106401;1253;73718;-81
2023/12/05 22:56:49;;;;;;;37.80;17.00;;;;;;;4.61;69.37;101605.36;106272;1257;67182;-80
2023/12/05 22:59:23;;;;;;;39.10;17.90;;;;;;;4.65;69.32;101603.51;106381;1253;72682;-80
2023/12/05 23:01:56;;;;;;;33.70;15.70;;;;;;;4.67;69.28;101606.09;106322;1254;61191;-80
2023/12/05 23:04:30;;;;;;;36.50;17.70;;;;;;;4.65;69.66;101606.73;106442;1254;60166;-81
2023/12/05 23:07:04;;;;;;;29.90;15.10;;;;;;;4.66;69.70;101609.46;106287;1253;73474;-80
2023/12/05 23:09:32;;;;;;;34.30;17.10;;;;;;;4.65;70.05;101605.97;106484;1256;68692;-80
2023/12/05 23:12:04;;;;;;;32.20;14.80;;;;;;;4.61;70.57;101608.48;106309;1254;72719;-80
2023/12/05 23:14:38;;;;;;;30.50;14.00;;;;;;;4.66;70.35;101608.46;106471;1256;61363;-80
2023/12/05 23:17:11;;;;;;;33.90;15.60;;;;;;;4.64;70.26;101611.22;106354;1257;61257;-81
2023/12/05 23:19:45;;;;;;;33.10;16.10;;;;;;;4.62;70.54;101611.81;106361;1254;73431;-80
2023/12/05 23:22:19;;;;;;;35.10;16.00;;;;;;;4.69;70.17;101613.13;106502;1254;67299;-80
2023/12/05 23:24:54;;;;;;;35.10;16.50;;;;;;;4.67;70.31;101612.80;106540;1253;71806;-80
2023/12/05 23:27:28;;;;;;;32.70;15.30;;;;;;;4.70;69.92;101611.95;106473;1254;61250;-80
2023/12/05 23:30:02;;;;;;;29.80;14.70;;;;;;;4.60;70.63;101610.40;106281;1257;61170;-80
2023/12/05 23:32:36;;;;;;;36.10;17.20;;;;;;;4.66;70.47;101610.22;106407;1253;73358;-80
2023/12/05 23:35:10;;;;;;;33.80;16.90;;;;;;;4.72;70.09;101615.58;106419;1253;68473;-80
2023/12/05 23:37:44;;;;;;;32.50;15.00;;;;;;;4.75;69.95;101618.23;106234;1253;72688;-80
2023/12/05 23:40:18;;;;;;;28.50;14.60;;;;;;;4.71;70.14;101618.70;106309;1254;61391;-80
2023/12/05 23:42:52;;;;;;;32.70;15.40;;;;;;;4.73;70.00;101613.54;106401;1253;61157;-80
2023/12/05 23:45:26;;;;;;;37.00;16.80;;;;;;;4.81;69.80;101609.71;106303;1253;73944;-80
2023/12/05 23:48:00;;;;;;;30.80;14.10;;;;;;;4.88;69.39;101612.13;106373;1257;67272;-80
2023/12/05 23:50:34;;;;;;;26.20;13.70;;;;;;;4.87;69.24;101611.61;106381;1257;72631;-80
2023/12/05 23:53:07;;;;;;;26.30;13.00;;;;;;;4.90;69.13;101614.56;106306;1253;61262;-80
2023/12/05 23:55:35;;;;;;;30.30;14.20;;;;;;;4.80;69.82;101608.31;106330;1253;61196;-80
2023/12/05 23:58:03;;;;;;;27.30;12.60;;;;;;;4.77;70.06;101611.30;106366;1257;74948;-80
